sensor_id;sensor_type;location;lat;lon;timestamp;P1;durP1;ratioP1;P2;durP2;ratioP2
12956;SDS011;6543;48.836;10.092;2023-06-26T00:00:10;8.73;;;7.00;;
12956;SDS011;6543;48.836;10.092;2023-06-26T00:02:38;8.80;;;7.33;;
12956;SDS011;6543;48.836;10.092;2023-06-26T00:05:05;9.60;;;6.88;;
12956;SDS011;6543;48.836;10.092;2023-06-26T00:07:32;8.83;;;6.33;;
12956;SDS011;6543;48.836;10.092;2023-06-26T00:10:00;7.97;;;6.43;;
12956;SDS011;6543;48.836;10.092;2023-06-26T00:12:27;9.87;;;6.63;;
12956;SDS011;6543;48.836;10.092;2023-06-26T00:14:54;8.80;;;6.90;;
12956;SDS011;6543;48.836;10.092;2023-06-26T00:17:23;8.13;;;6.63;;
12956;SDS011;6543;48.836;10.092;2023-06-26T00:19:50;8.73;;;7.27;;
12956;SDS011;6543;48.836;10.092;2023-06-26T00:22:17;8.23;;;6.78;;
12956;SDS011;6543;48.836;10.092;2023-06-26T00:24:44;8.43;;;6.97;;
12956;SDS011;6543;48.836;10.092;2023-06-26T00:27:11;8.20;;;6.90;;
12956;SDS011;6543;48.836;10.092;2023-06-26T00:29:38;8.60;;;6.93;;
12956;SDS011;6543;48.836;10.092;2023-06-26T00:32:06;10.00;;;6.37;;
12956;SDS011;6543;48.836;10.092;2023-06-26T00:34:34;8.15;;;6.25;;
12956;SDS011;6543;48.836;10.092;2023-06-26T00:37:01;7.43;;;6.63;;
12956;SDS011;6543;48.836;10.092;2023-06-26T00:39:29;9.93;;;6.80;;
12956;SDS011;6543;48.836;10.092;2023-06-26T00:41:56;8.53;;;6.33;;
12956;SDS011;6543;48.836;10.092;2023-06-26T00:44:22;8.20;;;6.97;;
12956;SDS011;6543;48.836;10.092;2023-06-26T00:46:49;13.73;;;7.63;;
12956;SDS011;6543;48.836;10.092;2023-06-26T00:49:16;12.53;;;6.73;;
12956;SDS011;6543;48.836;10.092;2023-06-26T00:51:44;8.17;;;6.13;;
12956;SDS011;6543;48.836;10.092;2023-06-26T00:54:12;8.30;;;6.87;;
12956;SDS011;6543;48.836;10.092;2023-06-26T00:56:44;7.70;;;6.90;;
12956;SDS011;6543;48.836;10.092;2023-06-26T00:59:11;11.00;;;6.77;;
12956;SDS011;6543;48.836;10.092;2023-06-26T01:01:38;8.63;;;6.90;;
12956;SDS011;6543;48.836;10.092;2023-06-26T01:04:05;8.23;;;6.57;;
12956;SDS011;6543;48.836;10.092;2023-06-26T01:06:33;9.17;;;7.17;;
12956;SDS011;6543;48.836;10.092;2023-06-26T01:09:03;8.43;;;6.70;;
12956;SDS011;6543;48.836;10.092;2023-06-26T01:11:30;9.10;;;7.60;;
12956;SDS011;6543;48.836;10.092;2023-06-26T01:13:57;12.50;;;7.10;;
12956;SDS011;6543;48.836;10.092;2023-06-26T01:16:27;7.83;;;6.67;;
12956;SDS011;6543;48.836;10.092;2023-06-26T01:18:56;8.20;;;6.47;;
12956;SDS011;6543;48.836;10.092;2023-06-26T01:21:23;8.13;;;6.70;;
12956;SDS011;6543;48.836;10.092;2023-06-26T01:23:57;17.10;;;7.43;;
12956;SDS011;6543;48.836;10.092;2023-06-26T01:26:31;7.53;;;6.33;;
12956;SDS011;6543;48.836;10.092;2023-06-26T01:29:01;9.47;;;7.20;;
12956;SDS011;6543;48.836;10.092;2023-06-26T01:31:30;14.63;;;6.55;;
12956;SDS011;6543;48.836;10.092;2023-06-26T01:33:58;10.50;;;6.47;;
12956;SDS011;6543;48.836;10.092;2023-06-26T01:36:25;8.53;;;6.97;;
12956;SDS011;6543;48.836;10.092;2023-06-26T01:38:53;9.53;;;7.10;;
12956;SDS011;6543;48.836;10.092;2023-06-26T01:41:20;9.25;;;6.63;;
12956;SDS011;6543;48.836;10.092;2023-06-26T01:43:55;8.17;;;6.47;;
12956;SDS011;6543;48.836;10.092;2023-06-26T01:46:32;11.05;;;6.90;;
12956;SDS011;6543;48.836;10.092;2023-06-26T01:49:06;7.47;;;6.77;;
12956;SDS011;6543;48.836;10.092;2023-06-26T01:51:41;9.10;;;7.03;;
12956;SDS011;6543;48.836;10.092;2023-06-26T01:54:13;10.80;;;6.40;;
12956;SDS011;6543;48.836;10.092;2023-06-26T01:56:43;8.33;;;6.17;;
12956;SDS011;6543;48.836;10.092;2023-06-26T01:59:16;8.60;;;7.37;;
12956;SDS011;6543;48.836;10.092;2023-06-26T02:01:45;11.53;;;6.70;;
12956;SDS011;6543;48.836;10.092;2023-06-26T02:04:13;7.20;;;6.50;;
12956;SDS011;6543;48.836;10.092;2023-06-26T02:06:40;8.27;;;6.90;;
12956;SDS011;6543;48.836;10.092;2023-06-26T02:09:07;7.23;;;6.53;;
12956;SDS011;6543;48.836;10.092;2023-06-26T02:11:33;7.50;;;6.70;;
12956;SDS011;6543;48.836;10.092;2023-06-26T02:14:00;7.90;;;7.10;;
12956;SDS011;6543;48.836;10.092;2023-06-26T02:16:29;11.43;;;6.88;;
12956;SDS011;6543;48.836;10.092;2023-06-26T02:18:56;9.00;;;6.70;;
12956;SDS011;6543;48.836;10.092;2023-06-26T02:21:23;8.33;;;6.67;;
12956;SDS011;6543;48.836;10.092;2023-06-26T02:23:50;9.90;;;7.17;;
12956;SDS011;6543;48.836;10.092;2023-06-26T02:26:17;8.37;;;6.90;;
12956;SDS011;6543;48.836;10.092;2023-06-26T02:28:44;8.10;;;7.07;;
12956;SDS011;6543;48.836;10.092;2023-06-26T02:31:11;8.43;;;6.70;;
12956;SDS011;6543;48.836;10.092;2023-06-26T02:33:39;8.35;;;7.00;;
12956;SDS011;6543;48.836;10.092;2023-06-26T02:36:07;9.50;;;6.90;;
12956;SDS011;6543;48.836;10.092;2023-06-26T02:38:34;10.30;;;7.23;;
12956;SDS011;6543;48.836;10.092;2023-06-26T02:41:01;11.43;;;6.83;;
12956;SDS011;6543;48.836;10.092;2023-06-26T02:43:28;7.37;;;6.63;;
12956;SDS011;6543;48.836;10.092;2023-06-26T02:45:55;9.47;;;7.53;;
12956;SDS011;6543;48.836;10.092;2023-06-26T02:48:22;8.03;;;7.23;;
12956;SDS011;6543;48.836;10.092;2023-06-26T02:50:50;10.47;;;7.10;;
12956;SDS011;6543;48.836;10.092;2023-06-26T02:53:17;7.67;;;6.87;;
12956;SDS011;6543;48.836;10.092;2023-06-26T02:55:44;10.07;;;7.43;;
12956;SDS011;6543;48.836;10.092;2023-06-26T02:58:12;12.60;;;6.60;;
12956;SDS011;6543;48.836;10.092;2023-06-26T03:00:39;15.60;;;7.27;;
12956;SDS011;6543;48.836;10.092;2023-06-26T03:03:06;25.93;;;7.73;;
12956;SDS011;6543;48.836;10.092;2023-06-26T03:05:33;8.23;;;7.23;;
12956;SDS011;6543;48.836;10.092;2023-06-26T03:08:02;10.83;;;7.23;;
12956;SDS011;6543;48.836;10.092;2023-06-26T03:10:29;10.30;;;6.90;;
12956;SDS011;6543;48.836;10.092;2023-06-26T03:12:55;10.97;;;7.47;;
12956;SDS011;6543;48.836;10.092;2023-06-26T03:15:22;11.40;;;7.50;;
12956;SDS011;6543;48.836;10.092;2023-06-26T03:17:49;12.10;;;7.40;;
12956;SDS011;6543;48.836;10.092;2023-06-26T03:20:16;7.53;;;6.37;;
12956;SDS011;6543;48.836;10.092;2023-06-26T03:22:43;10.03;;;7.07;;
12956;SDS011;6543;48.836;10.092;2023-06-26T03:25:11;8.93;;;7.47;;
12956;SDS011;6543;48.836;10.092;2023-06-26T03:27:38;8.03;;;6.70;;
12956;SDS011;6543;48.836;10.092;2023-06-26T03:30:05;13.20;;;7.60;;
12956;SDS011;6543;48.836;10.092;2023-06-26T03:32:33;11.90;;;7.33;;
12956;SDS011;6543;48.836;10.092;2023-06-26T03:35:00;11.20;;;7.90;;
12956;SDS011;6543;48.836;10.092;2023-06-26T03:37:28;11.87;;;6.83;;
12956;SDS011;6543;48.836;10.092;2023-06-26T03:39:55;11.37;;;6.80;;
12956;SDS011;6543;48.836;10.092;2023-06-26T03:42:23;10.43;;;6.80;;
12956;SDS011;6543;48.836;10.092;2023-06-26T03:44:50;12.57;;;8.10;;
12956;SDS011;6543;48.836;10.092;2023-06-26T03:47:17;12.40;;;7.90;;
12956;SDS011;6543;48.836;10.092;2023-06-26T03:49:44;10.63;;;7.03;;
12956;SDS011;6543;48.836;10.092;2023-06-26T03:52:11;11.47;;;7.63;;
12956;SDS011;6543;48.836;10.092;2023-06-26T03:54:38;10.67;;;7.50;;
12956;SDS011;6543;48.836;10.092;2023-06-26T03:57:05;14.50;;;7.73;;
12956;SDS011;6543;48.836;10.092;2023-06-26T03:59:33;17.37;;;7.80;;
12956;SDS011;6543;48.836;10.092;2023-06-26T04:02:00;11.40;;;7.67;;
12956;SDS011;6543;48.836;10.092;2023-06-26T04:04:28;15.33;;;8.27;;
12956;SDS011;6543;48.836;10.092;2023-06-26T04:06:55;13.87;;;7.30;;
12956;SDS011;6543;48.836;10.092;2023-06-26T04:09:22;9.90;;;7.27;;
12956;SDS011;6543;48.836;10.092;2023-06-26T04:11:49;10.40;;;7.83;;
12956;SDS011;6543;48.836;10.092;2023-06-26T04:14:16;12.27;;;7.70;;
12956;SDS011;6543;48.836;10.092;2023-06-26T04:16:44;13.90;;;7.43;;
12956;SDS011;6543;48.836;10.092;2023-06-26T04:19:11;9.20;;;7.77;;
12956;SDS011;6543;48.836;10.092;2023-06-26T04:21:38;12.30;;;7.40;;
12956;SDS011;6543;48.836;10.092;2023-06-26T04:24:06;13.30;;;7.83;;
12956;SDS011;6543;48.836;10.092;2023-06-26T04:26:33;15.27;;;9.07;;
12956;SDS011;6543;48.836;10.092;2023-06-26T04:29:00;17.83;;;8.13;;
12956;SDS011;6543;48.836;10.092;2023-06-26T04:31:27;21.43;;;9.60;;
12956;SDS011;6543;48.836;10.092;2023-06-26T04:33:55;18.63;;;8.63;;
12956;SDS011;6543;48.836;10.092;2023-06-26T04:36:24;17.50;;;8.65;;
12956;SDS011;6543;48.836;10.092;2023-06-26T04:38:54;17.70;;;9.30;;
12956;SDS011;6543;48.836;10.092;2023-06-26T04:41:21;10.73;;;7.45;;
12956;SDS011;6543;48.836;10.092;2023-06-26T04:43:48;10.48;;;7.90;;
12956;SDS011;6543;48.836;10.092;2023-06-26T04:46:15;14.00;;;8.07;;
12956;SDS011;6543;48.836;10.092;2023-06-26T04:48:41;9.07;;;7.18;;
12956;SDS011;6543;48.836;10.092;2023-06-26T04:51:11;8.32;;;7.10;;
12956;SDS011;6543;48.836;10.092;2023-06-26T04:53:38;11.18;;;7.35;;
12956;SDS011;6543;48.836;10.092;2023-06-26T04:56:05;11.05;;;7.68;;
12956;SDS011;6543;48.836;10.092;2023-06-26T04:58:32;9.02;;;8.05;;
12956;SDS011;6543;48.836;10.092;2023-06-26T05:00:58;12.05;;;7.20;;
12956;SDS011;6543;48.836;10.092;2023-06-26T05:03:25;10.43;;;7.85;;
12956;SDS011;6543;48.836;10.092;2023-06-26T05:05:53;9.02;;;7.45;;
12956;SDS011;6543;48.836;10.092;2023-06-26T05:08:22;9.45;;;8.07;;
12956;SDS011;6543;48.836;10.092;2023-06-26T05:10:51;13.43;;;7.70;;
12956;SDS011;6543;48.836;10.092;2023-06-26T05:13:22;10.93;;;7.28;;
12956;SDS011;6543;48.836;10.092;2023-06-26T05:15:49;9.82;;;6.60;;
12956;SDS011;6543;48.836;10.092;2023-06-26T05:18:18;11.10;;;7.25;;
12956;SDS011;6543;48.836;10.092;2023-06-26T05:20:45;14.63;;;7.72;;
12956;SDS011;6543;48.836;10.092;2023-06-26T05:23:13;12.05;;;7.75;;
12956;SDS011;6543;48.836;10.092;2023-06-26T05:25:43;10.45;;;7.43;;
12956;SDS011;6543;48.836;10.092;2023-06-26T05:28:11;14.52;;;8.30;;
12956;SDS011;6543;48.836;10.092;2023-06-26T05:30:40;11.60;;;8.55;;
12956;SDS011;6543;48.836;10.092;2023-06-26T05:33:08;9.13;;;7.60;;
12956;SDS011;6543;48.836;10.092;2023-06-26T05:35:37;8.30;;;6.97;;
12956;SDS011;6543;48.836;10.092;2023-06-26T05:38:04;11.63;;;7.75;;
12956;SDS011;6543;48.836;10.092;2023-06-26T05:40:33;8.27;;;7.10;;
12956;SDS011;6543;48.836;10.092;2023-06-26T05:43:01;9.93;;;7.10;;
12956;SDS011;6543;48.836;10.092;2023-06-26T05:45:29;8.18;;;6.70;;
12956;SDS011;6543;48.836;10.092;2023-06-26T05:47:55;8.45;;;7.18;;
12956;SDS011;6543;48.836;10.092;2023-06-26T05:50:22;8.65;;;7.05;;
12956;SDS011;6543;48.836;10.092;2023-06-26T05:52:50;9.57;;;7.10;;
12956;SDS011;6543;48.836;10.092;2023-06-26T05:55:18;13.73;;;7.78;;
12956;SDS011;6543;48.836;10.092;2023-06-26T05:57:45;7.85;;;6.75;;
12956;SDS011;6543;48.836;10.092;2023-06-26T06:00:18;8.10;;;6.57;;
12956;SDS011;6543;48.836;10.092;2023-06-26T06:02:46;13.70;;;7.18;;
12956;SDS011;6543;48.836;10.092;2023-06-26T06:05:19;8.52;;;6.97;;
12956;SDS011;6543;48.836;10.092;2023-06-26T06:07:55;9.10;;;7.30;;
12956;SDS011;6543;48.836;10.092;2023-06-26T06:10:59;8.27;;;7.22;;
12956;SDS011;6543;48.836;10.092;2023-06-26T06:13:51;8.85;;;7.43;;
12956;SDS011;6543;48.836;10.092;2023-06-26T06:16:19;8.07;;;6.68;;
12956;SDS011;6543;48.836;10.092;2023-06-26T06:18:46;7.85;;;6.60;;
12956;SDS011;6543;48.836;10.092;2023-06-26T06:21:15;7.97;;;7.05;;
12956;SDS011;6543;48.836;10.092;2023-06-26T06:23:42;8.07;;;6.72;;
12956;SDS011;6543;48.836;10.092;2023-06-26T06:26:09;11.07;;;6.70;;
12956;SDS011;6543;48.836;10.092;2023-06-26T06:28:36;9.73;;;7.30;;
12956;SDS011;6543;48.836;10.092;2023-06-26T06:31:03;12.63;;;7.72;;
12956;SDS011;6543;48.836;10.092;2023-06-26T06:33:31;9.88;;;6.82;;
12956;SDS011;6543;48.836;10.092;2023-06-26T06:35:59;11.90;;;7.45;;
12956;SDS011;6543;48.836;10.092;2023-06-26T06:38:26;9.27;;;7.45;;
12956;SDS011;6543;48.836;10.092;2023-06-26T06:40:53;10.18;;;6.97;;
12956;SDS011;6543;48.836;10.092;2023-06-26T06:43:20;9.27;;;7.03;;
12956;SDS011;6543;48.836;10.092;2023-06-26T06:45:47;9.00;;;6.65;;
12956;SDS011;6543;48.836;10.092;2023-06-26T06:48:14;12.75;;;7.30;;
12956;SDS011;6543;48.836;10.092;2023-06-26T06:50:42;11.18;;;7.88;;
12956;SDS011;6543;48.836;10.092;2023-06-26T06:53:09;10.07;;;7.65;;
12956;SDS011;6543;48.836;10.092;2023-06-26T06:55:36;9.90;;;7.25;;
12956;SDS011;6543;48.836;10.092;2023-06-26T06:58:03;8.15;;;7.28;;
12956;SDS011;6543;48.836;10.092;2023-06-26T07:00:29;9.20;;;7.30;;
12956;SDS011;6543;48.836;10.092;2023-06-26T07:02:57;15.27;;;6.95;;
12956;SDS011;6543;48.836;10.092;2023-06-26T07:05:25;9.40;;;6.78;;
12956;SDS011;6543;48.836;10.092;2023-06-26T07:07:53;7.43;;;5.93;;
12956;SDS011;6543;48.836;10.092;2023-06-26T07:10:23;12.02;;;6.15;;
12956;SDS011;6543;48.836;10.092;2023-06-26T07:12:50;12.57;;;6.47;;
12956;SDS011;6543;48.836;10.092;2023-06-26T07:15:17;7.00;;;6.05;;
12956;SDS011;6543;48.836;10.092;2023-06-26T07:17:46;6.90;;;6.00;;
12956;SDS011;6543;48.836;10.092;2023-06-26T07:20:14;6.32;;;5.30;;
12956;SDS011;6543;48.836;10.092;2023-06-26T07:22:42;7.43;;;5.95;;
12956;SDS011;6543;48.836;10.092;2023-06-26T07:25:11;8.90;;;6.03;;
12956;SDS011;6543;48.836;10.092;2023-06-26T07:27:38;7.28;;;5.57;;
12956;SDS011;6543;48.836;10.092;2023-06-26T07:30:07;10.13;;;5.78;;
12956;SDS011;6543;48.836;10.092;2023-06-26T07:32:35;6.00;;;5.40;;
12956;SDS011;6543;48.836;10.092;2023-06-26T07:35:05;6.03;;;5.15;;
12956;SDS011;6543;48.836;10.092;2023-06-26T07:37:33;6.15;;;5.55;;
12956;SDS011;6543;48.836;10.092;2023-06-26T07:40:00;7.10;;;5.20;;
12956;SDS011;6543;48.836;10.092;2023-06-26T07:42:28;5.85;;;4.72;;
12956;SDS011;6543;48.836;10.092;2023-06-26T07:44:55;5.65;;;4.88;;
12956;SDS011;6543;48.836;10.092;2023-06-26T07:47:22;5.95;;;5.28;;
12956;SDS011;6543;48.836;10.092;2023-06-26T07:49:50;6.30;;;5.45;;
12956;SDS011;6543;48.836;10.092;2023-06-26T07:52:34;10.00;;;5.50;;
12956;SDS011;6543;48.836;10.092;2023-06-26T07:55:02;5.32;;;4.82;;
12956;SDS011;6543;48.836;10.092;2023-06-26T07:57:31;5.47;;;4.95;;
12956;SDS011;6543;48.836;10.092;2023-06-26T07:59:58;8.05;;;5.28;;
12956;SDS011;6543;48.836;10.092;2023-06-26T08:02:25;5.75;;;5.05;;
12956;SDS011;6543;48.836;10.092;2023-06-26T08:04:52;7.80;;;6.07;;
12956;SDS011;6543;48.836;10.092;2023-06-26T08:07:19;9.70;;;5.32;;
12956;SDS011;6543;48.836;10.092;2023-06-26T08:09:47;6.18;;;5.57;;
12956;SDS011;6543;48.836;10.092;2023-06-26T08:12:21;7.00;;;5.63;;
12956;SDS011;6543;48.836;10.092;2023-06-26T08:14:53;7.72;;;5.63;;
12956;SDS011;6543;48.836;10.092;2023-06-26T08:17:23;7.80;;;5.70;;
12956;SDS011;6543;48.836;10.092;2023-06-26T08:19:53;7.78;;;5.63;;
12956;SDS011;6543;48.836;10.092;2023-06-26T08:22:21;6.68;;;5.68;;
12956;SDS011;6543;48.836;10.092;2023-06-26T08:24:48;7.53;;;6.22;;
12956;SDS011;6543;48.836;10.092;2023-06-26T08:27:15;6.07;;;5.43;;
12956;SDS011;6543;48.836;10.092;2023-06-26T08:29:42;5.60;;;5.10;;
12956;SDS011;6543;48.836;10.092;2023-06-26T08:32:10;6.47;;;5.78;;
12956;SDS011;6543;48.836;10.092;2023-06-26T08:34:37;8.40;;;5.13;;
12956;SDS011;6543;48.836;10.092;2023-06-26T08:37:04;6.03;;;5.43;;
12956;SDS011;6543;48.836;10.092;2023-06-26T08:39:34;8.45;;;5.00;;
12956;SDS011;6543;48.836;10.092;2023-06-26T08:42:01;5.78;;;4.95;;
12956;SDS011;6543;48.836;10.092;2023-06-26T08:44:28;5.30;;;4.80;;
12956;SDS011;6543;48.836;10.092;2023-06-26T08:46:55;7.13;;;4.72;;
12956;SDS011;6543;48.836;10.092;2023-06-26T08:49:25;4.95;;;4.45;;
12956;SDS011;6543;48.836;10.092;2023-06-26T08:51:59;5.47;;;4.97;;
12956;SDS011;6543;48.836;10.092;2023-06-26T08:54:38;7.07;;;4.97;;
12956;SDS011;6543;48.836;10.092;2023-06-26T08:57:09;5.75;;;4.43;;
12956;SDS011;6543;48.836;10.092;2023-06-26T08:59:37;8.77;;;5.10;;
12956;SDS011;6543;48.836;10.092;2023-06-26T09:02:04;6.38;;;5.03;;
12956;SDS011;6543;48.836;10.092;2023-06-26T09:04:33;5.45;;;4.95;;
12956;SDS011;6543;48.836;10.092;2023-06-26T09:07:01;7.53;;;5.13;;
12956;SDS011;6543;48.836;10.092;2023-06-26T09:09:28;11.65;;;5.38;;
12956;SDS011;6543;48.836;10.092;2023-06-26T09:11:55;5.82;;;4.78;;
12956;SDS011;6543;48.836;10.092;2023-06-26T09:14:21;6.00;;;5.07;;
12956;SDS011;6543;48.836;10.092;2023-06-26T09:16:49;8.27;;;5.07;;
12956;SDS011;6543;48.836;10.092;2023-06-26T09:19:16;7.50;;;5.07;;
12956;SDS011;6543;48.836;10.092;2023-06-26T09:21:44;7.65;;;5.75;;
12956;SDS011;6543;48.836;10.092;2023-06-26T09:24:11;8.80;;;5.07;;
12956;SDS011;6543;48.836;10.092;2023-06-26T09:26:39;11.35;;;5.72;;
12956;SDS011;6543;48.836;10.092;2023-06-26T09:29:06;6.72;;;5.15;;
12956;SDS011;6543;48.836;10.092;2023-06-26T09:31:33;5.47;;;4.97;;
12956;SDS011;6543;48.836;10.092;2023-06-26T09:34:02;5.82;;;4.97;;
12956;SDS011;6543;48.836;10.092;2023-06-26T09:36:30;5.95;;;5.35;;
12956;SDS011;6543;48.836;10.092;2023-06-26T09:39:00;9.43;;;5.63;;
12956;SDS011;6543;48.836;10.092;2023-06-26T09:41:27;7.25;;;5.10;;
12956;SDS011;6543;48.836;10.092;2023-06-26T09:43:56;6.25;;;5.07;;
12956;SDS011;6543;48.836;10.092;2023-06-26T09:46:27;6.22;;;4.95;;
12956;SDS011;6543;48.836;10.092;2023-06-26T09:48:58;6.55;;;5.70;;
12956;SDS011;6543;48.836;10.092;2023-06-26T09:51:29;5.95;;;5.35;;
12956;SDS011;6543;48.836;10.092;2023-06-26T09:53:56;13.10;;;5.97;;
12956;SDS011;6543;48.836;10.092;2023-06-26T09:56:24;7.75;;;5.28;;
12956;SDS011;6543;48.836;10.092;2023-06-26T09:58:55;5.65;;;4.80;;
12956;SDS011;6543;48.836;10.092;2023-06-26T10:01:23;7.80;;;5.05;;
12956;SDS011;6543;48.836;10.092;2023-06-26T10:03:50;8.73;;;4.50;;
12956;SDS011;6543;48.836;10.092;2023-06-26T10:06:17;5.40;;;4.72;;
12956;SDS011;6543;48.836;10.092;2023-06-26T10:08:48;5.45;;;4.43;;
12956;SDS011;6543;48.836;10.092;2023-06-26T10:11:15;7.45;;;4.55;;
12956;SDS011;6543;48.836;10.092;2023-06-26T10:13:47;4.85;;;4.38;;
12956;SDS011;6543;48.836;10.092;2023-06-26T10:16:18;5.18;;;4.68;;
12956;SDS011;6543;48.836;10.092;2023-06-26T10:18:50;5.32;;;4.82;;
12956;SDS011;6543;48.836;10.092;2023-06-26T10:21:19;9.45;;;4.38;;
12956;SDS011;6543;48.836;10.092;2023-06-26T10:23:48;5.28;;;4.40;;
12956;SDS011;6543;48.836;10.092;2023-06-26T10:26:17;4.68;;;4.15;;
12956;SDS011;6543;48.836;10.092;2023-06-26T10:28:48;5.75;;;4.70;;
12956;SDS011;6543;48.836;10.092;2023-06-26T10:31:18;4.38;;;3.97;;
12956;SDS011;6543;48.836;10.092;2023-06-26T10:33:47;4.93;;;4.03;;
12956;SDS011;6543;48.836;10.092;2023-06-26T10:36:15;7.55;;;4.15;;
12956;SDS011;6543;48.836;10.092;2023-06-26T10:38:50;6.10;;;4.30;;
12956;SDS011;6543;48.836;10.092;2023-06-26T10:41:19;4.50;;;4.03;;
12956;SDS011;6543;48.836;10.092;2023-06-26T10:43:50;5.15;;;4.65;;
12956;SDS011;6543;48.836;10.092;2023-06-26T10:46:18;4.97;;;4.50;;
12956;SDS011;6543;48.836;10.092;2023-06-26T10:48:57;5.80;;;4.40;;
12956;SDS011;6543;48.836;10.092;2023-06-26T10:51:25;5.40;;;4.35;;
12956;SDS011;6543;48.836;10.092;2023-06-26T10:53:55;7.13;;;5.18;;
12956;SDS011;6543;48.836;10.092;2023-06-26T10:56:42;15.77;;;5.18;;
12956;SDS011;6543;48.836;10.092;2023-06-26T10:59:15;6.20;;;4.43;;
12956;SDS011;6543;48.836;10.092;2023-06-26T11:01:43;5.35;;;4.85;;
12956;SDS011;6543;48.836;10.092;2023-06-26T11:04:13;5.75;;;4.57;;
12956;SDS011;6543;48.836;10.092;2023-06-26T11:06:43;6.68;;;4.38;;
12956;SDS011;6543;48.836;10.092;2023-06-26T11:09:14;5.25;;;4.68;;
12956;SDS011;6543;48.836;10.092;2023-06-26T11:11:56;5.43;;;4.93;;
12956;SDS011;6543;48.836;10.092;2023-06-26T11:14:37;9.60;;;4.85;;
12956;SDS011;6543;48.836;10.092;2023-06-26T11:17:04;6.55;;;4.55;;
12956;SDS011;6543;48.836;10.092;2023-06-26T11:19:32;4.60;;;4.20;;
12956;SDS011;6543;48.836;10.092;2023-06-26T11:21:59;7.25;;;4.90;;
12956;SDS011;6543;48.836;10.092;2023-06-26T11:24:30;8.00;;;4.07;;
12956;SDS011;6543;48.836;10.092;2023-06-26T11:27:01;8.02;;;4.80;;
12956;SDS011;6543;48.836;10.092;2023-06-26T11:29:29;6.38;;;5.10;;
12956;SDS011;6543;48.836;10.092;2023-06-26T11:32:02;11.85;;;4.20;;
12956;SDS011;6543;48.836;10.092;2023-06-26T11:34:32;10.43;;;4.53;;
12956;SDS011;6543;48.836;10.092;2023-06-26T11:37:00;5.03;;;4.53;;
12956;SDS011;6543;48.836;10.092;2023-06-26T11:39:30;5.55;;;4.90;;
12956;SDS011;6543;48.836;10.092;2023-06-26T11:41:57;4.95;;;4.53;;
12956;SDS011;6543;48.836;10.092;2023-06-26T11:44:25;7.55;;;5.38;;
12956;SDS011;6543;48.836;10.092;2023-06-26T11:46:56;5.22;;;4.75;;
12956;SDS011;6543;48.836;10.092;2023-06-26T11:49:25;6.15;;;5.00;;
12956;SDS011;6543;48.836;10.092;2023-06-26T11:51:55;8.88;;;5.55;;
12956;SDS011;6543;48.836;10.092;2023-06-26T11:54:25;6.18;;;5.22;;
12956;SDS011;6543;48.836;10.092;2023-06-26T11:56:56;7.13;;;5.25;;
12956;SDS011;6543;48.836;10.092;2023-06-26T11:59:31;8.52;;;4.45;;
12956;SDS011;6543;48.836;10.092;2023-06-26T12:02:00;7.00;;;5.30;;
12956;SDS011;6543;48.836;10.092;2023-06-26T12:04:31;7.07;;;4.97;;
12956;SDS011;6543;48.836;10.092;2023-06-26T12:06:59;5.65;;;4.97;;
12956;SDS011;6543;48.836;10.092;2023-06-26T12:09:29;10.50;;;5.60;;
12956;SDS011;6543;48.836;10.092;2023-06-26T12:11:58;5.90;;;5.30;;
12956;SDS011;6543;48.836;10.092;2023-06-26T12:14:26;9.15;;;5.22;;
12956;SDS011;6543;48.836;10.092;2023-06-26T12:16:53;5.38;;;4.88;;
12956;SDS011;6543;48.836;10.092;2023-06-26T12:19:24;8.02;;;5.00;;
12956;SDS011;6543;48.836;10.092;2023-06-26T12:21:53;10.48;;;4.43;;
12956;SDS011;6543;48.836;10.092;2023-06-26T12:24:22;5.43;;;4.93;;
12956;SDS011;6543;48.836;10.092;2023-06-26T12:26:51;8.80;;;4.95;;
12956;SDS011;6543;48.836;10.092;2023-06-26T12:29:21;9.02;;;4.40;;
12956;SDS011;6543;48.836;10.092;2023-06-26T12:31:51;5.43;;;4.18;;
12956;SDS011;6543;48.836;10.092;2023-06-26T12:34:19;14.07;;;4.85;;
12956;SDS011;6543;48.836;10.092;2023-06-26T12:36:47;8.70;;;4.75;;
12956;SDS011;6543;48.836;10.092;2023-06-26T12:39:17;6.35;;;5.13;;
12956;SDS011;6543;48.836;10.092;2023-06-26T12:41:53;8.25;;;4.88;;
12956;SDS011;6543;48.836;10.092;2023-06-26T12:44:21;13.10;;;5.78;;
12956;SDS011;6543;48.836;10.092;2023-06-26T12:46:53;4.88;;;4.38;;
12956;SDS011;6543;48.836;10.092;2023-06-26T12:49:28;6.47;;;5.20;;
12956;SDS011;6543;48.836;10.092;2023-06-26T12:52:00;6.32;;;5.40;;
12956;SDS011;6543;48.836;10.092;2023-06-26T12:54:29;11.95;;;5.13;;
12956;SDS011;6543;48.836;10.092;2023-06-26T12:56:56;5.60;;;5.20;;
12956;SDS011;6543;48.836;10.092;2023-06-26T12:59:23;9.77;;;6.15;;
12956;SDS011;6543;48.836;10.092;2023-06-26T13:01:51;13.52;;;5.60;;
12956;SDS011;6543;48.836;10.092;2023-06-26T13:04:18;11.70;;;6.28;;
12956;SDS011;6543;48.836;10.092;2023-06-26T13:06:45;10.77;;;5.28;;
12956;SDS011;6543;48.836;10.092;2023-06-26T13:09:12;7.95;;;5.50;;
12956;SDS011;6543;48.836;10.092;2023-06-26T13:11:40;19.90;;;5.72;;
12956;SDS011;6543;48.836;10.092;2023-06-26T13:14:07;8.85;;;5.90;;
12956;SDS011;6543;48.836;10.092;2023-06-26T13:16:35;7.53;;;4.70;;
12956;SDS011;6543;48.836;10.092;2023-06-26T13:19:02;7.82;;;6.35;;
12956;SDS011;6543;48.836;10.092;2023-06-26T13:21:29;8.82;;;5.93;;
12956;SDS011;6543;48.836;10.092;2023-06-26T13:23:56;6.80;;;5.82;;
12956;SDS011;6543;48.836;10.092;2023-06-26T13:26:24;6.95;;;5.93;;
12956;SDS011;6543;48.836;10.092;2023-06-26T13:28:53;10.38;;;5.68;;
12956;SDS011;6543;48.836;10.092;2023-06-26T13:31:19;10.60;;;5.40;;
12956;SDS011;6543;48.836;10.092;2023-06-26T13:33:47;8.68;;;5.72;;
12956;SDS011;6543;48.836;10.092;2023-06-26T13:36:14;9.85;;;6.20;;
12956;SDS011;6543;48.836;10.092;2023-06-26T13:38:41;8.15;;;5.97;;
12956;SDS011;6543;48.836;10.092;2023-06-26T13:41:08;6.82;;;5.40;;
12956;SDS011;6543;48.836;10.092;2023-06-26T13:43:35;9.20;;;5.35;;
12956;SDS011;6543;48.836;10.092;2023-06-26T13:46:03;6.30;;;5.63;;
12956;SDS011;6543;48.836;10.092;2023-06-26T13:48:30;9.63;;;5.40;;
12956;SDS011;6543;48.836;10.092;2023-06-26T13:50:58;11.82;;;5.53;;
12956;SDS011;6543;48.836;10.092;2023-06-26T13:53:25;7.10;;;5.40;;
12956;SDS011;6543;48.836;10.092;2023-06-26T13:55:52;7.82;;;5.85;;
12956;SDS011;6543;48.836;10.092;2023-06-26T13:58:19;6.40;;;5.72;;
12956;SDS011;6543;48.836;10.092;2023-06-26T14:00:47;9.43;;;6.00;;
12956;SDS011;6543;48.836;10.092;2023-06-26T14:03:15;7.57;;;5.43;;
12956;SDS011;6543;48.836;10.092;2023-06-26T14:05:42;8.30;;;5.50;;
12956;SDS011;6543;48.836;10.092;2023-06-26T14:08:09;6.90;;;5.47;;
12956;SDS011;6543;48.836;10.092;2023-06-26T14:10:36;10.90;;;6.90;;
12956;SDS011;6543;48.836;10.092;2023-06-26T14:13:03;8.02;;;6.50;;
12956;SDS011;6543;48.836;10.092;2023-06-26T14:15:30;9.77;;;6.28;;
12956;SDS011;6543;48.836;10.092;2023-06-26T14:17:58;14.75;;;5.25;;
12956;SDS011;6543;48.836;10.092;2023-06-26T14:20:29;6.38;;;5.25;;
12956;SDS011;6543;48.836;10.092;2023-06-26T14:22:57;6.68;;;5.80;;
12956;SDS011;6543;48.836;10.092;2023-06-26T14:25:24;8.85;;;5.97;;
12956;SDS011;6543;48.836;10.092;2023-06-26T14:27:53;6.60;;;4.78;;
12956;SDS011;6543;48.836;10.092;2023-06-26T14:30:20;10.00;;;5.88;;
12956;SDS011;6543;48.836;10.092;2023-06-26T14:32:47;9.57;;;5.65;;
12956;SDS011;6543;48.836;10.092;2023-06-26T14:35:14;28.13;;;7.32;;
12956;SDS011;6543;48.836;10.092;2023-06-26T14:37:42;12.77;;;6.15;;
12956;SDS011;6543;48.836;10.092;2023-06-26T14:40:10;9.48;;;5.82;;
12956;SDS011;6543;48.836;10.092;2023-06-26T14:42:37;5.95;;;5.38;;
12956;SDS011;6543;48.836;10.092;2023-06-26T14:45:05;43.20;;;7.25;;
12956;SDS011;6543;48.836;10.092;2023-06-26T14:47:33;10.77;;;6.10;;
12956;SDS011;6543;48.836;10.092;2023-06-26T14:49:59;6.13;;;5.53;;